createdAt,value
2022-09-06T00:01:17.720Z,21.20
2022-09-06T00:03:46.609Z,19.30
2022-09-06T00:06:18.043Z,20.00
2022-09-06T00:08:48.505Z,20.60
2022-09-06T00:11:18.204Z,19.40
2022-09-06T00:16:30.105Z,19.40
2022-09-06T00:21:30.860Z,19.80
2022-09-06T00:31:26.633Z,19.60
2022-09-06T00:33:54.775Z,20.10
2022-09-06T00:43:50.193Z,19.00
2022-09-06T00:46:28.226Z,20.60
2022-09-06T00:49:04.172Z,20.80
2022-09-06T00:51:34.776Z,19.40
2022-09-06T00:54:06.961Z,19.10
2022-09-06T00:56:41.179Z,18.50
2022-09-06T01:07:10.435Z,19.20
2022-09-06T01:13:05.208Z,20.20
2022-09-06T01:19:13.583Z,19.50
2022-09-06T01:24:50.214Z,18.80
2022-09-06T01:27:41.349Z,20.60
2022-09-06T01:30:14.599Z,19.80
2022-09-06T01:35:57.612Z,20.40
2022-09-06T01:43:36.894Z,20.10
2022-09-06T01:46:45.891Z,19.10
2022-09-06T02:00:15.691Z,19.30
2022-09-06T02:05:56.065Z,19.20
2022-09-06T02:08:34.518Z,19.20
2022-09-06T02:11:08.483Z,19.30
2022-09-06T02:13:47.520Z,19.50
2022-09-06T02:16:23.475Z,19.30
2022-09-06T02:19:12.714Z,19.30
2022-09-06T02:21:46.026Z,19.20
2022-09-06T02:24:23.496Z,19.00
2022-09-06T02:32:02.779Z,18.60
2022-09-06T02:34:56.561Z,17.90
2022-09-06T02:37:26.176Z,18.90
2022-09-06T02:39:56.131Z,18.90
2022-09-06T02:42:25.194Z,19.10
2022-09-06T02:44:53.150Z,18.40
2022-09-06T03:04:40.216Z,20.40
2022-09-06T03:59:07.134Z,19.40
2022-09-06T04:01:36.210Z,19.20
2022-09-06T04:21:23.330Z,19.00
2022-09-06T04:33:44.500Z,19.20
2022-09-06T04:36:12.952Z,18.20
2022-09-06T04:38:44.747Z,19.20
2022-09-06T04:41:17.051Z,19.00
2022-09-06T04:48:55.120Z,18.60
2022-09-06T04:51:24.653Z,19.30
2022-09-06T04:56:26.169Z,18.90
2022-09-06T04:58:55.708Z,18.90
2022-09-06T05:01:26.186Z,19.60
2022-09-06T05:06:27.076Z,19.50
2022-09-06T05:11:23.481Z,19.00
2022-09-06T05:16:19.833Z,19.40
2022-09-06T05:23:45.356Z,19.00
2022-09-06T05:26:13.349Z,18.30
2022-09-06T05:28:41.304Z,18.90
2022-09-06T05:31:13.246Z,19.00
2022-09-06T05:33:41.281Z,18.70
2022-09-06T05:36:09.992Z,18.40
2022-09-06T05:38:37.961Z,18.70
2022-09-06T05:43:34.298Z,18.80
2022-09-06T05:46:02.373Z,17.80
2022-09-06T05:48:36.039Z,18.80
2022-09-06T05:51:12.661Z,18.70
2022-09-06T05:53:44.497Z,18.80
2022-09-06T06:01:23.054Z,18.50
2022-09-06T06:03:58.906Z,18.70
2022-09-06T06:06:33.516Z,19.00
2022-09-06T06:11:31.309Z,17.40
2022-09-06T06:13:59.412Z,18.70
2022-09-06T06:16:27.523Z,17.80
2022-09-06T06:18:56.016Z,18.00
2022-09-06T06:21:30.596Z,19.50
2022-09-06T06:24:03.000Z,18.00
2022-09-06T06:26:35.528Z,18.70
2022-09-06T06:29:07.915Z,18.20
2022-09-06T06:31:38.511Z,18.60
2022-09-06T06:36:37.084Z,17.40
2022-09-06T06:39:08.571Z,18.70
2022-09-06T06:44:23.255Z,18.70
2022-09-06T06:46:52.032Z,18.40
2022-09-06T06:49:20.052Z,19.20
2022-09-06T06:51:48.175Z,17.90
2022-09-06T06:54:16.119Z,18.90
2022-09-06T06:56:45.600Z,19.60
2022-09-06T06:59:14.417Z,19.30
2022-09-06T07:01:42.509Z,18.50
2022-09-06T07:15:01.196Z,19.00
2022-09-06T07:17:29.646Z,17.50
2022-09-06T07:20:13.169Z,18.60
2022-09-06T07:22:42.683Z,19.30
2022-09-06T07:25:14.448Z,18.90
2022-09-06T07:30:19.939Z,18.70
2022-09-06T07:35:16.714Z,18.90
2022-09-06T07:38:01.649Z,19.20
2022-09-06T07:40:31.264Z,19.10
2022-09-06T07:43:00.106Z,18.50
2022-09-06T07:45:28.196Z,20.20
2022-09-06T07:48:00.703Z,18.90
2022-09-06T07:50:47.433Z,20.70
2022-09-06T07:53:25.992Z,18.90
2022-09-06T07:56:00.859Z,19.30
2022-09-06T07:58:30.810Z,19.20
2022-09-06T08:01:39.055Z,19.40
2022-09-06T08:04:13.976Z,20.10
2022-09-06T08:09:37.229Z,19.30
2022-09-06T08:12:09.245Z,19.40
2022-09-06T08:17:05.619Z,20.90
2022-09-06T08:19:34.517Z,19.20
2022-09-06T08:22:02.700Z,19.20
2022-09-06T08:24:31.164Z,19.20
2022-09-06T08:26:59.140Z,20.10
2022-09-06T08:36:52.320Z,19.60
2022-09-06T08:39:20.358Z,19.20
2022-09-06T08:41:55.888Z,19.80
2022-09-06T08:47:26.251Z,19.30
2022-09-06T08:50:06.050Z,19.70
2022-09-06T08:53:23.024Z,19.50
2022-09-06T08:56:18.523Z,19.20
2022-09-06T08:59:08.171Z,19.40
2022-09-06T09:02:07.132Z,20.80
2022-09-06T09:04:43.601Z,19.80
2022-09-06T09:07:38.721Z,19.70
2022-09-06T09:10:17.445Z,19.10
2022-09-06T09:12:49.032Z,20.60
2022-09-06T09:15:20.741Z,19.50
2022-09-06T09:17:51.089Z,19.90
2022-09-06T09:20:19.209Z,20.30
2022-09-06T09:22:47.854Z,19.80
2022-09-06T09:25:23.694Z,19.00
2022-09-06T09:27:57.792Z,19.60
2022-09-06T09:30:49.981Z,20.20
2022-09-06T09:33:30.307Z,20.50
2022-09-06T09:36:13.142Z,20.80
2022-09-06T09:38:46.854Z,20.80
2022-09-06T09:41:32.937Z,20.70
2022-09-06T09:44:06.300Z,20.00
2022-09-06T09:46:39.786Z,20.90
2022-09-06T09:49:11.837Z,21.30
2022-09-06T09:52:06.953Z,21.30
2022-09-06T09:54:39.466Z,21.70
2022-09-06T09:57:17.874Z,21.50
2022-09-06T10:00:13.862Z,21.30
2022-09-06T10:02:43.456Z,21.00
2022-09-06T10:05:16.867Z,21.40
2022-09-06T10:07:52.993Z,21.90
2022-09-06T10:10:24.122Z,22.10
2022-09-06T10:13:31.811Z,22.00
2022-09-06T10:16:03.222Z,22.30
2022-09-06T10:18:43.685Z,21.10
2022-09-06T10:21:16.091Z,22.20
2022-09-06T10:24:30.580Z,22.60
2022-09-06T10:27:03.650Z,21.50
2022-09-06T10:29:41.328Z,22.80
2022-09-06T10:35:21.100Z,23.50
2022-09-06T10:38:32.300Z,22.80
2022-09-06T10:44:31.603Z,23.90
2022-09-06T10:47:12.257Z,24.50
2022-09-06T10:49:55.457Z,23.00
2022-09-06T10:52:41.075Z,24.40
2022-09-06T10:55:15.977Z,24.40
2022-09-06T11:00:47.560Z,26.60
2022-09-06T11:06:32.389Z,27.70
2022-09-06T11:09:55.507Z,28.00
2022-09-06T11:12:46.246Z,28.70
2022-09-06T11:15:17.704Z,29.20
2022-09-06T11:18:05.654Z,30.60
2022-09-06T11:20:45.873Z,29.90
2022-09-06T11:23:48.247Z,31.40
2022-09-06T11:26:40.044Z,30.20
2022-09-06T11:29:23.100Z,32.20
2022-09-06T11:34:56.511Z,31.50
2022-09-06T11:37:39.660Z,31.70
2022-09-06T11:45:52.626Z,33.30
2022-09-06T11:48:27.124Z,34.00
2022-09-06T11:53:59.909Z,34.70
2022-09-06T11:56:48.177Z,34.80
2022-09-06T11:59:19.773Z,34.60
2022-09-06T12:02:37.845Z,35.80
2022-09-06T12:07:37.876Z,35.10
2022-09-06T12:10:41.880Z,35.10
2022-09-06T12:13:44.920Z,35.60
2022-09-06T12:16:15.561Z,36.30
2022-09-06T12:21:35.315Z,35.70
2022-09-06T12:24:06.396Z,36.40
2022-09-06T12:27:16.016Z,36.70
2022-09-06T12:30:04.309Z,36.60
2022-09-06T12:32:56.138Z,36.70
2022-09-06T12:38:25.471Z,37.00
2022-09-06T12:43:27.053Z,36.20
2022-09-06T12:48:33.371Z,36.90
2022-09-06T12:51:09.198Z,37.80
2022-09-06T12:53:38.276Z,37.70
2022-09-06T12:56:12.492Z,37.70
2022-09-06T12:58:40.923Z,37.60
2022-09-06T13:01:33.706Z,38.10
2022-09-06T13:04:09.952Z,38.40
2022-09-06T13:06:45.729Z,37.30
2022-09-06T13:09:19.099Z,36.80
2022-09-06T13:11:52.096Z,38.50
2022-09-06T13:14:31.225Z,39.20
2022-09-06T13:16:59.897Z,38.90
2022-09-06T13:19:37.190Z,38.50
2022-09-06T13:22:10.816Z,37.60
2022-09-06T13:24:57.236Z,40.30
2022-09-06T13:27:31.228Z,40.40
2022-09-06T13:30:09.125Z,37.70
2022-09-06T13:32:46.852Z,39.10
2022-09-06T13:35:29.518Z,39.70
2022-09-06T13:38:39.733Z,38.00
2022-09-06T13:41:37.063Z,39.40
2022-09-06T13:44:19.862Z,38.80
2022-09-06T13:46:53.797Z,39.30
2022-09-06T13:49:23.785Z,39.60
2022-09-06T13:51:54.515Z,37.60
2022-09-06T13:54:22.920Z,39.10
2022-09-06T13:56:52.077Z,36.80
2022-09-06T13:59:20.334Z,38.50
2022-09-06T14:02:03.143Z,38.70
2022-09-06T14:04:32.524Z,38.80
2022-09-06T14:07:00.839Z,37.20
2022-09-06T14:11:57.850Z,37.90
2022-09-06T14:14:25.837Z,37.50
2022-09-06T14:16:54.089Z,40.00
2022-09-06T14:19:22.421Z,39.80
2022-09-06T14:21:50.713Z,39.20
2022-09-06T14:24:19.034Z,39.10
2022-09-06T14:26:47.074Z,39.80
2022-09-06T14:29:15.049Z,38.00
2022-09-06T14:31:42.966Z,38.90
2022-09-06T14:34:13.040Z,39.00
2022-09-06T14:36:41.135Z,38.80
2022-09-06T14:39:09.180Z,39.60
2022-09-06T14:41:37.201Z,38.20
2022-09-06T14:44:05.508Z,38.20
2022-09-06T14:49:09.990Z,38.60
2022-09-06T14:51:39.681Z,38.20
2022-09-06T14:54:14.494Z,37.20
2022-09-06T14:59:12.669Z,37.80
2022-09-06T15:02:05.553Z,38.60
2022-09-06T15:04:33.635Z,37.30
2022-09-06T15:11:58.444Z,36.30
2022-09-06T15:14:31.424Z,37.00
2022-09-06T15:17:00.018Z,38.40
2022-09-06T15:19:30.082Z,39.30
2022-09-06T15:22:00.137Z,38.00
2022-09-06T15:29:27.014Z,38.90
2022-09-06T15:31:56.093Z,38.50
2022-09-06T15:34:26.620Z,37.70
2022-09-06T15:36:56.508Z,38.60
2022-09-06T15:39:29.287Z,37.80
2022-09-06T15:41:57.995Z,36.90
2022-09-06T15:44:26.400Z,36.70
2022-09-06T15:46:58.110Z,37.70
2022-09-06T15:49:32.014Z,37.30
2022-09-06T15:52:03.215Z,37.60
2022-09-06T16:02:15.345Z,36.70
2022-09-06T16:04:43.462Z,36.50
2022-09-06T16:07:11.837Z,35.60
2022-09-06T16:12:09.086Z,35.80
2022-09-06T16:14:38.164Z,35.40
2022-09-06T16:24:32.088Z,35.50
2022-09-06T16:29:28.439Z,36.20
2022-09-06T16:36:56.983Z,33.90
2022-09-06T16:39:25.128Z,33.40
2022-09-06T16:46:50.751Z,32.00
2022-09-06T16:49:19.269Z,31.20
2022-09-06T16:51:50.075Z,30.40
2022-09-06T16:56:47.787Z,30.80
2022-09-06T17:01:45.838Z,30.80
2022-09-06T17:04:14.599Z,30.20
2022-09-06T17:09:17.631Z,29.40
2022-09-06T17:14:18.975Z,29.20
2022-09-06T17:17:05.427Z,29.20
2022-09-06T17:19:43.055Z,28.80
2022-09-06T17:22:13.077Z,29.00
2022-09-06T17:24:41.566Z,29.00
2022-09-06T17:32:10.180Z,29.00
2022-09-06T17:34:40.001Z,27.10
2022-09-06T17:42:06.047Z,25.50
2022-09-06T17:49:43.084Z,27.30
2022-09-06T18:02:05.512Z,26.40
2022-09-06T18:47:12.544Z,22.40
2022-09-06T19:04:34.471Z,24.10
2022-09-06T19:07:03.767Z,22.10
2022-09-06T19:09:32.991Z,23.30
2022-09-06T19:26:53.273Z,23.80
2022-09-06T19:31:49.771Z,22.10
2022-09-06T19:36:49.954Z,21.80
2022-09-06T19:39:18.013Z,22.30
2022-09-06T19:41:47.309Z,21.60
2022-09-06T19:44:17.068Z,22.90
2022-09-06T19:46:46.767Z,21.80
2022-09-06T19:51:52.839Z,21.70
2022-09-06T19:56:49.163Z,21.50
2022-09-06T19:59:17.830Z,21.40
2022-09-06T20:01:47.541Z,22.00
2022-09-06T20:06:44.208Z,21.50
2022-09-06T20:11:42.697Z,21.60
2022-09-06T20:14:12.474Z,20.60
2022-09-06T20:19:14.122Z,22.20
2022-09-06T20:31:37.989Z,21.30
2022-09-06T20:34:07.310Z,20.00
2022-09-06T20:39:04.392Z,21.00
2022-09-06T20:41:33.669Z,21.00
2022-09-06T20:44:01.984Z,20.80
2022-09-06T20:46:35.478Z,19.70
2022-09-06T20:49:05.051Z,21.20
2022-09-06T20:51:35.683Z,19.90
2022-09-06T20:54:05.653Z,20.90
2022-09-06T20:56:38.680Z,21.00
2022-09-06T20:59:10.905Z,20.20
2022-09-06T21:01:45.816Z,20.00
2022-09-06T21:04:16.441Z,20.90
2022-09-06T21:09:15.040Z,19.90
2022-09-06T21:11:43.751Z,20.50
2022-09-06T21:14:12.755Z,19.60
2022-09-06T21:19:11.225Z,19.90
2022-09-06T21:24:10.479Z,20.60
2022-09-06T21:31:37.349Z,19.40
2022-09-06T21:34:15.692Z,19.60
2022-09-06T21:39:13.893Z,19.50
2022-09-06T21:41:43.397Z,19.40
2022-09-06T21:49:13.496Z,20.30
2022-09-06T22:10:10.235Z,18.30
2022-09-06T22:17:50.180Z,19.60
2022-09-06T22:22:46.520Z,18.70
2022-09-06T22:27:43.171Z,18.80
2022-09-06T22:32:40.656Z,20.00
2022-09-06T22:35:09.836Z,19.40
2022-09-06T22:37:38.061Z,18.80
2022-09-06T22:40:06.989Z,19.10
2022-09-06T22:42:34.965Z,18.50
2022-09-06T22:52:57.104Z,19.40
2022-09-06T22:55:25.120Z,19.10
2022-09-06T23:10:14.344Z,18.40
2022-09-06T23:12:42.339Z,18.60
2022-09-06T23:15:10.651Z,18.70
2022-09-06T23:20:07.622Z,19.10
2022-09-06T23:27:32.426Z,18.70
2022-09-06T23:30:02.757Z,17.70
2022-09-06T23:32:33.215Z,17.80
2022-09-06T23:37:29.379Z,18.70
2022-09-06T23:42:25.692Z,18.30
2022-09-06T23:44:57.456Z,17.00
2022-09-06T23:47:25.537Z,18.50
2022-09-06T23:49:53.703Z,18.60
2022-09-06T23:52:21.723Z,17.40
